San Jose, California
Current Conditions -  °F | °C
As of 4:53 AM on Saturday 25 Oct 2014 (Local Time) from KSJC Reporting Station
Broken Clouds Broken Clouds  
Wind Chill: 63°   Ceiling: 3500
Heat Index: 63°   Visibility: 10mi
Dew Point: 53°   Wind: 7mph
Humidity: 70%   Direction: 110°ESE
Pressure: 29.93"   Gusts: NA
Location:  37.35°N, 121.9°W
Report Text: KSJC 251153Z AUTO 11006KT 10SM BKN035 BKN060 17/12 A2993 RMK AO2 SLP133 T01720117 10178 20161 55008
Loading
Personal Weather Stations






























Interactive Weather Map
Tropical Storm Tracking
New forecast layout! Learn more

10-Day Weather Forecast

Advertisements
Track Severe Weather on mobile